Time;durP1;ratioP1;P1;durP2;ratioP2;P2;SDS_P1;SDS_P2;PMS_P1;PMS_P2;Temp;Humidity;BMP_temperature;BMP_pressure;BME280_temperature;BME280_humidity;BME280_pressure;Samples;Min_cycle;Max_cycle;Signal;HPM_P1;HPM_P2
2023/01/23 00:00:57;;;;;;;2.85;2.33;;;17.20;65.20;;;;;;6213141;23;20001;-71
2023/01/23 00:03:22;;;;;;;3.08;2.58;;;17.10;65.30;;;;;;6212874;23;20001;-71
2023/01/23 00:06:03;;;;;;;2.80;2.10;;;17.10;65.40;;;;;;6213209;23;20372;-71
2023/01/23 00:08:29;;;;;;;2.45;2.25;;;17.10;65.40;;;;;;6188453;23;20000;-71
2023/01/23 00:10:54;;;;;;;2.05;1.92;;;17.00;65.50;;;;;;6213086;23;20024;-71
2023/01/23 00:13:20;;;;;;;2.40;2.20;;;17.00;65.60;;;;;;6214085;23;20001;-71
2023/01/23 00:15:46;;;;;;;2.70;1.92;;;17.00;65.70;;;;;;6212581;23;20436;-70
2023/01/23 00:18:12;;;;;;;2.55;1.90;;;16.90;65.80;;;;;;6214434;23;20008;-70
2023/01/23 00:20:38;;;;;;;2.42;1.95;;;16.90;65.90;;;;;;6188096;23;20000;-70
2023/01/23 00:23:04;;;;;;;2.40;2.20;;;16.90;66.20;;;;;;6187746;23;20054;-70
2023/01/23 00:25:29;;;;;;;2.42;2.22;;;16.90;66.10;;;;;;6187962;23;20444;-70
2023/01/23 00:27:55;;;;;;;2.53;2.17;;;16.80;67.20;;;;;;6212514;23;20429;-70
2023/01/23 00:30:21;;;;;;;2.30;2.10;;;16.80;66.30;;;;;;6214422;23;20001;-70
2023/01/23 00:32:46;;;;;;;2.90;2.13;;;16.80;66.30;;;;;;6214490;23;20001;-70
2023/01/23 00:35:12;;;;;;;2.30;2.10;;;16.80;66.30;;;;;;6214722;23;20011;-70
2023/01/23 00:37:37;;;;;;;4.45;2.25;;;16.80;66.40;;;;;;6214102;23;20004;-70
2023/01/23 00:40:04;;;;;;;2.17;1.98;;;16.70;66.40;;;;;;6214356;23;20008;-70
2023/01/23 00:42:29;;;;;;;2.70;2.50;;;16.70;66.60;;;;;;6214428;23;20001;-70
2023/01/23 00:44:55;;;;;;;2.22;2.03;;;16.70;66.70;;;;;;6214343;23;20024;-70
2023/01/23 00:47:20;;;;;;;2.40;2.20;;;16.70;66.70;;;;;;6214269;23;20441;-70
2023/01/23 00:49:46;;;;;;;2.50;2.30;;;16.70;66.80;;;;;;6214166;23;20008;-70
2023/01/23 00:52:12;;;;;;;1.88;1.77;;;16.60;66.80;;;;;;6214216;23;20032;-70
2023/01/23 00:54:38;;;;;;;2.22;1.92;;;16.60;66.90;;;;;;6214248;23;20008;-70
2023/01/23 00:57:03;;;;;;;2.22;2.03;;;16.60;66.90;;;;;;6213696;23;20019;-70
2023/01/23 00:59:29;;;;;;;2.47;2.15;;;16.60;67.00;;;;;;6214231;23;20071;-70
2023/01/23 01:01:55;;;;;;;2.25;2.05;;;16.50;67.00;;;;;;6189573;23;20004;-70
2023/01/23 01:04:20;;;;;;;2.42;2.22;;;16.50;67.00;;;;;;6216110;23;20001;-70
2023/01/23 01:06:46;;;;;;;2.03;1.90;;;16.50;67.00;;;;;;6216089;23;20012;-70
2023/01/23 01:09:12;;;;;;;2.30;2.10;;;16.50;67.00;;;;;;6215954;23;20118;-70
2023/01/23 01:11:37;;;;;;;2.20;2.00;;;16.50;67.00;;;;;;6215782;23;20155;-70
2023/01/23 01:14:03;;;;;;;2.17;1.95;;;16.50;67.00;;;;;;6215887;23;20004;-70
2023/01/23 01:16:29;;;;;;;2.35;2.10;;;16.40;67.90;;;;;;6214430;23;20005;-70
2023/01/23 01:18:54;;;;;;;2.15;2.00;;;16.40;66.90;;;;;;6215772;23;20445;-70
2023/01/23 01:21:20;;;;;;;2.70;2.08;;;16.40;66.90;;;;;;6214532;23;20027;-70
2023/01/23 01:23:46;;;;;;;2.08;1.85;;;16.40;67.00;;;;;;6215604;23;20056;-70
2023/01/23 01:26:11;;;;;;;3.17;2.40;;;16.30;66.90;;;;;;6215631;23;19996;-70
2023/01/23 01:28:38;;;;;;;1.88;1.77;;;16.30;66.90;;;;;;6214304;23;20047;-70
2023/01/23 01:31:13;;;;;;;2.03;1.92;;;16.30;67.10;;;;;;6215571;23;20005;-70
2023/01/23 01:33:40;;;;;;;2.08;1.88;;;16.30;67.40;;;;;;6189416;23;19997;-70
2023/01/23 01:36:09;;;;;;;2.33;1.90;;;16.20;67.00;;;;;;6189297;23;20000;-70
2023/01/23 01:38:35;;;;;;;2.08;1.98;;;16.20;67.00;;;;;;6215826;23;20035;-70
2023/01/23 01:41:01;;;;;;;2.17;2.08;;;16.20;67.20;;;;;;6215341;23;19996;-70
2023/01/23 01:43:27;;;;;;;2.83;1.85;;;16.20;67.20;;;;;;6214174;23;20373;-70
2023/01/23 01:46:21;;;;;;;1.70;1.60;;;16.20;67.20;;;;;;6189244;23;20001;-70
2023/01/23 01:48:50;;;;;;;2.30;2.10;;;16.20;66.90;;;;;;6215773;23;20000;-70
2023/01/23 01:51:17;;;;;;;2.00;1.90;;;16.10;67.00;;;;;;6215540;23;20012;-70
2023/01/23 01:53:45;;;;;;;2.03;1.80;;;16.10;66.80;;;;;;6214060;23;20004;-70
2023/01/23 01:56:11;;;;;;;2.00;1.90;;;16.10;66.80;;;;;;6215208;23;20004;-70
2023/01/23 01:58:37;;;;;;;2.03;1.83;;;16.10;67.00;;;;;;6189264;23;20007;-70
2023/01/23 02:01:03;;;;;;;1.90;1.80;;;16.10;67.50;;;;;;6188981;23;20076;-70
2023/01/23 02:03:28;;;;;;;1.88;1.77;;;16.10;67.60;;;;;;6189111;23;20004;-70
2023/01/23 02:05:54;;;;;;;2.42;1.70;;;16.00;67.50;;;;;;6213911;23;20084;-70
2023/01/23 02:08:28;;;;;;;2.38;1.90;;;16.00;67.50;;;;;;6214027;23;20036;-70
2023/01/23 02:10:53;;;;;;;2.10;2.00;;;16.00;67.40;;;;;;6213401;23;20016;-70
2023/01/23 02:13:32;;;;;;;2.13;1.92;;;16.00;67.50;;;;;;6188862;23;20000;-70
2023/01/23 02:15:59;;;;;;;2.03;1.90;;;16.00;67.30;;;;;;6213761;23;20005;-70
2023/01/23 02:18:25;;;;;;;2.13;1.85;;;16.00;67.00;;;;;;6188960;23;19996;-70
2023/01/23 02:20:51;;;;;;;1.92;1.83;;;16.00;67.10;;;;;;6189242;23;19997;-70
2023/01/23 02:23:35;;;;;;;1.80;1.70;;;16.00;67.20;;;;;;6188557;23;20108;-70
2023/01/23 02:26:04;;;;;;;2.33;1.85;;;15.90;67.00;;;;;;6215265;23;20341;-70
2023/01/23 02:28:44;;;;;;;2.05;1.90;;;15.90;67.20;;;;;;6189239;23;20001;-70
2023/01/23 02:31:09;;;;;;;2.03;1.77;;;15.90;67.30;;;;;;6213665;23;20051;-70
2023/01/23 02:33:35;;;;;;;1.75;1.65;;;15.90;67.10;;;;;;6215341;23;20005;-70
2023/01/23 02:36:01;;;;;;;2.08;1.88;;;15.90;67.00;;;;;;6214857;23;20011;-70
2023/01/23 02:38:30;;;;;;;2.10;1.90;;;15.90;67.10;;;;;;6214910;23;20383;-70
2023/01/23 02:40:56;;;;;;;1.88;1.77;;;15.80;67.00;;;;;;6215040;23;20035;-70
2023/01/23 02:43:24;;;;;;;2.28;2.08;;;15.80;67.10;;;;;;6188556;23;20001;-70
2023/01/23 02:45:52;;;;;;;1.70;1.60;;;15.80;67.20;;;;;;6213677;23;19997;-70
2023/01/23 02:48:18;;;;;;;2.25;2.05;;;15.80;67.30;;;;;;6215008;23;20067;-70
2023/01/23 02:50:45;;;;;;;1.70;1.60;;;15.80;67.40;;;;;;6213762;23;20004;-70
2023/01/23 02:53:11;;;;;;;1.85;1.75;;;15.70;67.40;;;;;;6214331;23;20000;-70
2023/01/23 02:55:41;;;;;;;1.98;1.88;;;15.70;67.30;;;;;;6215131;23;20351;-70
2023/01/23 03:00:51;;;;;;;1.80;1.67;;;15.70;67.40;;;;;;6213894;23;20039;-70
2023/01/23 03:03:16;;;;;;;1.70;1.42;;;15.70;67.40;;;;;;6213357;23;20000;-70
2023/01/23 03:05:42;;;;;;;1.83;1.73;;;15.60;67.50;;;;;;6213364;23;20004;-70
2023/01/23 03:08:08;;;;;;;2.10;1.90;;;15.60;67.50;;;;;;6213136;23;20062;-70
2023/01/23 03:10:33;;;;;;;2.10;1.90;;;15.60;67.70;;;;;;6213024;23;20009;-70
2023/01/23 03:13:02;;;;;;;1.80;1.70;;;15.60;67.70;;;;;;6213478;23;20032;-70
2023/01/23 03:15:28;;;;;;;1.73;1.63;;;15.60;67.60;;;;;;6215366;23;20008;-70
2023/01/23 03:17:53;;;;;;;1.80;1.70;;;15.60;67.70;;;;;;6213361;23;20095;-70
2023/01/23 03:20:22;;;;;;;2.38;1.73;;;15.60;67.70;;;;;;6214705;23;20046;-70
2023/01/23 03:22:48;;;;;;;2.10;1.90;;;15.50;67.80;;;;;;6214359;23;19997;-70
2023/01/23 03:25:14;;;;;;;1.70;1.60;;;15.50;67.80;;;;;;6188285;23;20016;-69
2023/01/23 03:27:39;;;;;;;2.08;1.88;;;15.50;67.80;;;;;;6214932;23;20032;-69
2023/01/23 03:30:20;;;;;;;2.20;1.73;;;15.50;67.80;;;;;;6213227;23;20000;-69
2023/01/23 03:32:46;;;;;;;1.67;1.58;;;15.50;67.90;;;;;;6214996;23;20011;-70
2023/01/23 03:35:21;;;;;;;1.63;1.50;;;15.50;67.90;;;;;;6213169;23;20024;-70
2023/01/23 03:37:47;;;;;;;3.17;1.80;;;15.40;67.90;;;;;;6189967;23;20047;-70
2023/01/23 03:43:04;;;;;;;2.10;1.55;;;15.40;67.90;;;;;;6213375;23;20011;-70
2023/01/23 03:45:30;;;;;;;1.75;1.65;;;15.50;68.00;;;;;;6214744;23;20067;-70
2023/01/23 03:47:56;;;;;;;1.80;1.50;;;15.40;68.00;;;;;;6188351;23;20384;-70
2023/01/23 03:50:22;;;;;;;2.22;1.67;;;15.40;68.00;;;;;;6188174;23;20000;-70
2023/01/23 03:52:47;;;;;;;2.00;1.52;;;15.40;68.10;;;;;;6214379;23;20011;-70
2023/01/23 03:55:13;;;;;;;2.13;1.92;;;15.40;68.30;;;;;;6214233;23;20012;-70
2023/01/23 03:57:38;;;;;;;1.70;1.60;;;15.40;68.30;;;;;;6213195;23;20007;-70
2023/01/23 04:00:05;;;;;;;1.70;1.58;;;15.40;68.30;;;;;;6212966;23;20051;-70
2023/01/23 04:02:31;;;;;;;1.52;1.42;;;15.40;68.30;;;;;;6214510;23;20079;-70
2023/01/23 04:04:57;;;;;;;1.60;1.50;;;15.30;68.30;;;;;;6212877;23;19996;-70
2023/01/23 04:07:22;;;;;;;2.53;1.50;;;15.40;68.40;;;;;;6212898;23;20001;-70
2023/01/23 04:09:48;;;;;;;1.60;1.50;;;15.30;68.30;;;;;;6214376;23;20005;-70
2023/01/23 04:12:14;;;;;;;2.10;1.80;;;15.30;68.40;;;;;;6214508;23;20075;-70
2023/01/23 04:14:39;;;;;;;3.25;1.65;;;15.30;68.40;;;;;;6212991;23;20000;-70
2023/01/23 04:17:05;;;;;;;1.77;1.67;;;15.30;68.50;;;;;;6212636;23;20001;-70
2023/01/23 04:19:31;;;;;;;1.40;1.30;;;15.30;68.60;;;;;;6187866;23;20326;-70
2023/01/23 04:21:57;;;;;;;1.77;1.67;;;15.30;68.50;;;;;;6188112;23;20004;-70
2023/01/23 04:24:23;;;;;;;2.03;1.80;;;15.30;68.50;;;;;;6212469;23;20013;-70
2023/01/23 04:26:48;;;;;;;1.48;1.38;;;15.20;68.50;;;;;;6214544;23;20071;-70
2023/01/23 04:29:15;;;;;;;1.70;1.60;;;15.30;68.70;;;;;;6214095;23;20463;-70
2023/01/23 04:31:41;;;;;;;1.83;1.73;;;15.30;68.50;;;;;;6214518;23;20008;-70
2023/01/23 04:34:07;;;;;;;1.60;1.50;;;15.20;68.60;;;;;;6215051;23;20009;-70
2023/01/23 04:36:32;;;;;;;1.75;1.65;;;15.20;68.70;;;;;;6216248;23;20028;-70
2023/01/23 04:38:58;;;;;;;1.70;1.60;;;15.20;68.70;;;;;;6214919;23;20346;-70
2023/01/23 04:41:25;;;;;;;1.48;1.38;;;15.20;68.70;;;;;;6216251;23;20001;-70
2023/01/23 04:43:51;;;;;;;1.55;1.45;;;15.20;68.70;;;;;;6214824;23;20000;-70
2023/01/23 04:46:17;;;;;;;1.90;1.80;;;15.20;68.80;;;;;;6216184;23;20000;-70
2023/01/23 04:48:42;;;;;;;3.60;1.60;;;15.20;68.80;;;;;;6216047;23;20004;-70
2023/01/23 04:51:08;;;;;;;1.50;1.40;;;15.20;68.90;;;;;;6214738;23;20100;-70
2023/01/23 04:53:33;;;;;;;1.80;1.70;;;15.20;68.90;;;;;;6214688;23;20341;-70
2023/01/23 04:55:59;;;;;;;1.60;1.48;;;15.10;68.80;;;;;;6214458;23;20465;-70
2023/01/23 04:58:25;;;;;;;1.50;1.35;;;15.10;68.80;;;;;;6189528;23;20001;-69
2023/01/23 05:00:51;;;;;;;1.60;1.50;;;15.10;69.00;;;;;;6216250;23;20001;-70
2023/01/23 05:03:16;;;;;;;1.77;1.60;;;15.10;69.00;;;;;;6189439;23;20004;-70
2023/01/23 05:05:43;;;;;;;1.60;1.33;;;15.10;69.10;;;;;;6216111;23;19997;-70
2023/01/23 05:08:09;;;;;;;1.40;1.30;;;15.10;69.20;;;;;;6214540;23;20007;-70
2023/01/23 05:10:35;;;;;;;1.40;1.30;;;15.10;69.20;;;;;;6216177;23;20005;-70
2023/01/23 05:13:01;;;;;;;1.50;1.40;;;15.10;69.20;;;;;;6214824;23;20032;-70
2023/01/23 05:15:26;;;;;;;2.28;1.30;;;15.10;69.20;;;;;;6214309;23;20004;-70
2023/01/23 05:17:52;;;;;;;2.22;1.63;;;15.10;69.20;;;;;;6214070;23;20000;-70
2023/01/23 05:20:19;;;;;;;1.50;1.40;;;15.10;70.10;;;;;;6215638;23;20000;-70
2023/01/23 05:22:53;;;;;;;1.77;1.67;;;15.10;69.20;;;;;;6214346;23;20322;-70
2023/01/23 05:25:24;;;;;;;1.70;1.30;;;15.10;69.20;;;;;;6214467;23;20055;-70
2023/01/23 05:27:50;;;;;;;1.90;1.70;;;15.10;69.20;;;;;;6190255;23;20008;-70
2023/01/23 05:30:16;;;;;;;1.40;1.30;;;15.10;69.30;;;;;;6214430;23;20092;-69
2023/01/23 05:32:42;;;;;;;1.67;1.40;;;15.10;69.40;;;;;;6214088;23;20004;-69
2023/01/23 05:35:08;;;;;;;1.80;1.70;;;15.10;69.40;;;;;;6189369;23;20011;-69
2023/01/23 05:37:33;;;;;;;1.60;1.50;;;15.00;69.30;;;;;;6214297;23;20031;-69
2023/01/23 05:39:59;;;;;;;1.70;1.60;;;15.10;69.30;;;;;;6214407;23;20001;-69
2023/01/23 05:42:25;;;;;;;1.73;1.63;;;15.00;69.40;;;;;;6215336;23;20024;-70
2023/01/23 05:44:50;;;;;;;1.60;1.50;;;15.00;69.30;;;;;;6215706;23;19996;-69
2023/01/23 05:47:16;;;;;;;1.73;1.63;;;15.00;69.30;;;;;;6215413;23;20000;-69
2023/01/23 05:49:41;;;;;;;1.55;1.45;;;15.00;69.40;;;;;;6214226;23;20563;-69
2023/01/23 05:52:07;;;;;;;1.90;1.45;;;15.00;69.50;;;;;;6215567;23;20028;-69
2023/01/23 05:54:33;;;;;;;2.20;1.40;;;15.00;69.50;;;;;;6215378;23;20028;-69
2023/01/23 05:56:58;;;;;;;1.90;1.52;;;15.00;69.50;;;;;;6213994;23;20318;-69
2023/01/23 05:59:24;;;;;;;1.65;1.55;;;15.00;69.60;;;;;;6215588;23;20000;-69
2023/01/23 06:01:50;;;;;;;1.73;1.42;;;15.00;69.60;;;;;;6215234;23;20047;-70
2023/01/23 06:04:15;;;;;;;1.50;1.40;;;15.00;69.60;;;;;;6215589;23;20000;-70
2023/01/23 06:06:42;;;;;;;2.13;1.40;;;15.00;69.50;;;;;;6214095;23;20127;-70
2023/01/23 06:09:08;;;;;;;1.77;1.50;;;15.00;69.60;;;;;;6213868;23;20436;-70
2023/01/23 06:11:33;;;;;;;1.45;1.35;;;15.00;69.50;;;;;;6189092;23;20084;-70
2023/01/23 06:13:59;;;;;;;1.40;1.30;;;15.00;69.50;;;;;;6215455;23;20013;-69
2023/01/23 06:16:25;;;;;;;1.45;1.33;;;15.00;69.50;;;;;;6188407;23;20055;-69
2023/01/23 06:18:50;;;;;;;1.50;1.40;;;15.00;69.60;;;;;;6215417;23;20023;-69
2023/01/23 06:21:17;;;;;;;1.30;1.20;;;15.00;69.60;;;;;;6215153;23;20004;-69
2023/01/23 06:23:43;;;;;;;1.55;1.45;;;15.00;69.50;;;;;;6215141;23;20058;-69
2023/01/23 06:26:09;;;;;;;1.70;1.60;;;15.00;69.50;;;;;;6213851;23;20075;-69
2023/01/23 06:28:34;;;;;;;1.77;1.45;;;14.90;69.50;;;;;;6213750;23;20377;-69
2023/01/23 06:31:02;;;;;;;1.60;1.50;;;14.90;69.50;;;;;;6213186;23;20392;-70
2023/01/23 06:33:28;;;;;;;1.40;1.30;;;14.90;69.50;;;;;;6189103;23;20011;-70
2023/01/23 06:35:58;;;;;;;1.70;1.60;;;15.00;69.50;;;;;;6215186;23;20001;-70
2023/01/23 06:38:24;;;;;;;1.40;1.30;;;14.90;69.40;;;;;;6213584;23;20009;-70
2023/01/23 06:40:49;;;;;;;1.40;1.30;;;14.90;69.50;;;;;;6215271;23;20004;-70
2023/01/23 06:43:15;;;;;;;0.93;0.90;;;14.90;69.50;;;;;;6215162;23;20010;-70
2023/01/23 06:45:45;;;;;;;1.70;1.35;;;14.90;69.50;;;;;;6213308;23;20076;-69
2023/01/23 06:48:10;;;;;;;1.50;1.40;;;14.90;69.50;;;;;;6188779;23;20351;-69
2023/01/23 06:50:37;;;;;;;1.50;1.40;;;14.90;69.50;;;;;;6214870;23;20473;-69
2023/01/23 06:53:04;;;;;;;1.30;1.20;;;14.90;69.50;;;;;;6213630;23;20004;-69
2023/01/23 06:55:30;;;;;;;1.50;1.40;;;14.90;69.50;;;;;;6214912;23;20028;-69
2023/01/23 06:57:55;;;;;;;2.03;1.30;;;14.90;69.50;;;;;;6213281;23;20005;-71
2023/01/23 07:00:21;;;;;;;1.60;1.48;;;14.90;69.60;;;;;;6214119;23;20009;-71
2023/01/23 07:02:47;;;;;;;1.30;1.20;;;14.90;69.40;;;;;;6214850;23;20436;-69
2023/01/23 07:05:13;;;;;;;1.60;1.50;;;14.90;69.20;;;;;;6214817;23;20047;-72
2023/01/23 07:07:38;;;;;;;1.90;1.60;;;14.90;69.00;;;;;;6213431;23;20005;-72
2023/01/23 07:10:05;;;;;;;1.80;1.70;;;14.90;68.60;;;;;;6213496;23;20036;-71
2023/01/23 07:12:30;;;;;;;2.00;1.80;;;14.90;68.20;;;;;;6213272;23;20033;-73
2023/01/23 07:14:56;;;;;;;3.08;2.15;;;14.90;67.80;;;;;;6214629;23;20007;-70
2023/01/23 07:17:21;;;;;;;2.17;2.08;;;14.90;67.30;;;;;;6213009;23;20005;-71
2023/01/23 07:19:47;;;;;;;2.40;2.20;;;14.90;67.00;;;;;;6214701;23;20001;-71
2023/01/23 07:22:19;;;;;;;2.63;2.42;;;14.90;66.50;;;;;;6214948;23;20001;-71
2023/01/23 07:24:44;;;;;;;2.15;1.95;;;14.80;66.40;;;;;;6188812;23;20086;-71
2023/01/23 07:27:10;;;;;;;2.40;1.80;;;14.80;66.20;;;;;;6214730;23;20381;-70
2023/01/23 07:29:36;;;;;;;2.42;2.10;;;14.80;66.30;;;;;;6214269;23;20441;-71
2023/01/23 07:32:01;;;;;;;1.90;1.77;;;14.80;66.20;;;;;;6213242;23;20027;-71
2023/01/23 07:34:27;;;;;;;3.35;2.47;;;14.80;66.20;;;;;;6213814;23;20031;-70
2023/01/23 07:36:52;;;;;;;2.40;2.20;;;14.80;66.20;;;;;;6211901;23;20360;-70
2023/01/23 07:39:18;;;;;;;3.00;2.42;;;14.80;66.30;;;;;;6213192;23;20334;-70
2023/01/23 07:41:44;;;;;;;2.92;2.28;;;14.80;66.20;;;;;;6211862;23;20003;-70
2023/01/23 07:44:15;;;;;;;2.42;2.22;;;14.80;66.30;;;;;;6213274;23;20076;-70
2023/01/23 07:46:41;;;;;;;4.53;2.20;;;14.80;66.30;;;;;;6211847;23;20005;-70
2023/01/23 07:49:06;;;;;;;3.55;2.50;;;14.80;66.30;;;;;;6211957;23;20035;-70
2023/01/23 07:51:33;;;;;;;2.38;2.17;;;14.80;66.30;;;;;;6213325;23;20028;-71
2023/01/23 07:53:59;;;;;;;6.40;2.80;;;14.80;66.30;;;;;;6211696;23;20008;-70
2023/01/23 07:56:24;;;;;;;12.35;3.75;;;14.80;66.40;;;;;;6186448;23;20329;-70
2023/01/23 07:58:50;;;;;;;18.33;4.78;;;14.80;66.50;;;;;;6213353;23;20744;-70
2023/01/23 08:01:16;;;;;;;18.70;5.00;;;14.90;66.70;;;;;;6214320;23;20005;-70
2023/01/23 08:03:41;;;;;;;24.00;5.43;;;14.90;67.30;;;;;;6214462;23;20337;-70
2023/01/23 08:06:07;;;;;;;21.33;5.95;;;14.90;68.00;;;;;;6213352;23;20028;-70
2023/01/23 08:08:33;;;;;;;12.65;4.55;;;14.90;68.60;;;;;;6211886;23;20020;-70
2023/01/23 08:10:59;;;;;;;22.65;5.25;;;14.90;68.90;;;;;;6215160;23;20011;-70
2023/01/23 08:13:25;;;;;;;20.88;5.07;;;14.90;69.10;;;;;;6188434;23;20008;-70
2023/01/23 08:15:52;;;;;;;14.63;4.90;;;14.90;69.10;;;;;;6214917;23;20008;-70
2023/01/23 08:18:17;;;;;;;13.05;4.75;;;14.90;69.10;;;;;;6212786;23;20396;-70
2023/01/23 08:20:43;;;;;;;23.88;5.25;;;14.90;69.10;;;;;;6215641;23;19997;-70
2023/01/23 08:23:09;;;;;;;17.27;4.97;;;14.90;69.10;;;;;;6216073;23;20080;-70
2023/01/23 08:25:36;;;;;;;15.93;4.82;;;14.90;69.10;;;;;;6216328;23;20029;-71
2023/01/23 08:28:02;;;;;;;9.18;4.10;;;14.90;69.10;;;;;;6214627;23;20001;-70
2023/01/23 08:30:27;;;;;;;15.93;4.50;;;14.90;69.00;;;;;;6214852;23;20000;-70
2023/01/23 08:32:53;;;;;;;11.77;3.80;;;14.90;69.00;;;;;;6214890;23;20079;-70
2023/01/23 08:35:18;;;;;;;12.35;4.35;;;14.90;69.00;;;;;;6216307;23;20079;-70
2023/01/23 08:37:44;;;;;;;12.45;3.88;;;14.90;69.00;;;;;;6216103;23;20084;-70
2023/01/23 08:40:10;;;;;;;8.18;3.42;;;14.90;69.00;;;;;;6216316;23;20024;-70
2023/01/23 08:42:36;;;;;;;12.40;4.63;;;14.90;69.00;;;;;;6214135;23;20407;-70
2023/01/23 08:45:02;;;;;;;7.38;3.40;;;14.90;69.00;;;;;;6216322;23;20028;-70
2023/01/23 08:47:27;;;;;;;10.10;3.60;;;14.90;69.00;;;;;;6214606;23;20039;-70
2023/01/23 08:49:53;;;;;;;6.43;3.42;;;14.90;69.00;;;;;;6216116;23;20001;-70
2023/01/23 08:52:18;;;;;;;9.80;3.97;;;14.90;69.00;;;;;;6216177;23;20001;-70
2023/01/23 08:54:44;;;;;;;6.28;3.78;;;14.90;69.10;;;;;;6214362;23;20008;-70
2023/01/23 08:57:10;;;;;;;4.45;3.15;;;14.90;69.10;;;;;;6215725;23;20005;-70
2023/01/23 08:59:35;;;;;;;6.53;3.65;;;14.90;69.10;;;;;;6216076;23;20001;-69
2023/01/23 09:02:01;;;;;;;7.78;3.20;;;14.90;69.10;;;;;;6215949;23;20384;-70
2023/01/23 09:04:27;;;;;;;8.55;3.60;;;14.90;69.00;;;;;;6216074;23;20449;-70
2023/01/23 09:06:52;;;;;;;7.43;3.38;;;14.90;69.10;;;;;;6189659;23;20008;-70
2023/01/23 09:09:18;;;;;;;7.28;3.65;;;14.90;69.10;;;;;;6215906;23;20092;-70
2023/01/23 09:11:45;;;;;;;7.18;3.70;;;14.90;69.10;;;;;;6215657;23;20001;-69
2023/01/23 09:14:11;;;;;;;7.70;3.50;;;14.90;70.20;;;;;;6216078;23;20079;-69
2023/01/23 09:16:38;;;;;;;9.00;3.20;;;14.90;69.20;;;;;;6215524;23;20036;-70
2023/01/23 09:19:03;;;;;;;6.65;3.10;;;14.80;69.20;;;;;;6215524;23;19996;-70
2023/01/23 09:21:29;;;;;;;6.60;3.20;;;14.80;69.20;;;;;;6216118;23;20001;-70
2023/01/23 09:23:55;;;;;;;7.30;3.20;;;14.80;69.20;;;;;;6215416;23;20039;-70
2023/01/23 09:26:21;;;;;;;4.63;2.72;;;14.90;69.30;;;;;;6214170;23;20000;-70
2023/01/23 09:28:47;;;;;;;6.05;2.80;;;14.90;69.20;;;;;;6214289;23;20011;-70
2023/01/23 09:31:12;;;;;;;6.28;2.65;;;14.80;69.30;;;;;;6214180;23;20053;-70
2023/01/23 09:33:38;;;;;;;4.55;2.63;;;14.80;69.30;;;;;;6214343;23;20016;-70
2023/01/23 09:36:04;;;;;;;5.63;3.40;;;14.90;68.60;;;;;;6214375;23;20463;-69
2023/01/23 09:38:32;;;;;;;4.18;2.70;;;14.80;69.30;;;;;;6215167;23;20004;-70
2023/01/23 09:40:58;;;;;;;6.05;2.92;;;14.90;69.40;;;;;;6214246;23;19997;-70
2023/01/23 09:43:38;;;;;;;5.22;3.17;;;14.90;69.40;;;;;;6189432;23;20000;-70
2023/01/23 09:46:06;;;;;;;5.45;2.90;;;14.80;69.30;;;;;;6214239;23;19997;-70
2023/01/23 09:48:48;;;;;;;4.97;2.63;;;14.80;69.40;;;;;;6214077;23;20031;-70
2023/01/23 09:51:29;;;;;;;5.60;2.70;;;14.80;69.30;;;;;;6214205;23;20072;-70
2023/01/23 09:53:58;;;;;;;4.45;3.00;;;14.80;69.50;;;;;;6213699;23;20008;-70
2023/01/23 09:56:28;;;;;;;4.80;2.72;;;14.80;69.50;;;;;;6213965;23;20004;-70
2023/01/23 09:58:58;;;;;;;3.72;2.90;;;14.80;69.40;;;;;;6214051;23;20059;-70
2023/01/23 10:01:25;;;;;;;4.85;2.88;;;14.80;69.40;;;;;;6214096;23;20039;-70
2023/01/23 10:03:50;;;;;;;7.28;2.97;;;14.80;69.40;;;;;;6189074;23;20003;-70
2023/01/23 10:06:24;;;;;;;3.38;2.42;;;14.80;69.40;;;;;;6213968;23;20072;-70
2023/01/23 10:09:14;;;;;;;5.75;3.00;;;14.80;69.40;;;;;;6213630;23;20001;-70
2023/01/23 10:11:43;;;;;;;4.85;2.97;;;14.80;69.40;;;;;;6215438;23;19997;-70
2023/01/23 10:14:12;;;;;;;5.35;3.13;;;14.80;69.40;;;;;;6215363;23;20001;-70
2023/01/23 10:17:05;;;;;;;7.03;3.50;;;14.80;69.40;;;;;;6215140;23;20009;-70
2023/01/23 10:19:36;;;;;;;6.13;3.65;;;14.80;69.40;;;;;;6190426;23;20053;-69
2023/01/23 10:22:20;;;;;;;4.28;3.03;;;14.80;69.40;;;;;;6215076;23;20460;-69
2023/01/23 10:24:53;;;;;;;5.85;3.10;;;14.80;69.40;;;;;;6213449;23;20020;-70
2023/01/23 10:27:31;;;;;;;6.00;3.30;;;14.80;69.40;;;;;;6189722;23;20467;-70
2023/01/23 10:30:26;;;;;;;6.82;3.15;;;14.80;69.40;;;;;;6215154;23;20071;-70
2023/01/23 10:32:57;;;;;;;4.18;3.10;;;14.80;69.40;;;;;;6188346;23;20372;-70
2023/01/23 10:35:49;;;;;;;5.13;3.00;;;14.80;69.40;;;;;;6189406;23;20104;-70
2023/01/23 10:38:32;;;;;;;3.80;2.80;;;14.80;69.50;;;;;;6213586;23;20031;-70
2023/01/23 10:41:13;;;;;;;;;;;14.80;69.40;;;;;;6215734;23;20007;-69
2023/01/23 10:43:42;;;;;;;3.33;2.97;;;14.80;69.40;;;;;;6215295;23;19946;-70
2023/01/23 10:46:21;;;;;;;4.00;2.70;;;14.80;69.40;;;;;;6188865;23;20016;-70
2023/01/23 10:48:50;;;;;;;4.00;2.80;;;14.80;69.50;;;;;;6213584;23;19996;-70
2023/01/23 10:51:23;;;;;;;3.53;3.00;;;14.80;69.40;;;;;;6188902;23;20007;-70
2023/01/23 10:54:12;;;;;;;3.53;2.97;;;14.80;69.50;;;;;;6213234;23;20344;-70
2023/01/23 10:56:51;;;;;;;4.85;3.22;;;14.80;69.40;;;;;;6213557;23;20059;-70
2023/01/23 10:59:21;;;;;;;3.38;2.95;;;14.80;69.50;;;;;;6213613;23;20070;-70
2023/01/23 11:02:17;;;;;;;3.53;2.65;;;14.70;69.40;;;;;;6214990;23;19997;-69
2023/01/23 11:04:45;;;;;;;3.70;2.65;;;14.80;69.50;;;;;;6183277;23;20333;-70
2023/01/23 11:07:11;;;;;;;3.30;2.63;;;14.70;69.40;;;;;;6213259;23;20093;-70
2023/01/23 11:09:52;;;;;;;3.65;2.70;;;14.80;69.40;;;;;;6215172;23;20388;-70
2023/01/23 11:12:20;;;;;;;4.25;2.63;;;14.80;69.40;;;;;;6214998;23;20402;-70
2023/01/23 11:14:46;;;;;;;2.95;2.63;;;14.80;69.40;;;;;;6214693;23;20035;-69
2023/01/23 11:17:23;;;;;;;2.67;2.45;;;14.80;69.50;;;;;;6214827;23;20342;-69
2023/01/23 11:19:52;;;;;;;2.90;2.50;;;14.80;69.40;;;;;;6214789;23;19997;-70
2023/01/23 11:22:37;;;;;;;2.63;2.25;;;14.80;69.50;;;;;;6188553;23;20021;-70
2023/01/23 11:25:25;;;;;;;2.50;2.30;;;14.70;69.40;;;;;;6213070;23;20016;-70
2023/01/23 11:27:59;;;;;;;3.28;2.42;;;14.80;69.50;;;;;;6196431;23;20005;-70
2023/01/23 11:30:37;;;;;;;2.40;2.20;;;14.70;69.40;;;;;;6189004;23;20028;-69
2023/01/23 11:33:24;;;;;;;2.60;2.40;;;14.70;69.40;;;;;;6213014;23;20000;-69
2023/01/23 11:36:05;;;;;;;2.35;2.13;;;14.70;69.40;;;;;;6213093;23;20004;-70
2023/01/23 11:38:55;;;;;;;4.32;2.83;;;14.70;69.40;;;;;;6214607;23;20334;-70
2023/01/23 11:41:27;;;;;;;5.30;2.15;;;14.70;69.40;;;;;;6189077;23;20011;-70
2023/01/23 11:43:53;;;;;;;2.47;1.92;;;14.70;69.40;;;;;;6189343;23;20456;-69
2023/01/23 11:46:48;;;;;;;3.90;2.20;;;14.70;69.40;;;;;;6188139;23;19996;-69
2023/01/23 11:49:40;;;;;;;2.97;2.38;;;14.70;69.40;;;;;;6212894;23;20000;-69
2023/01/23 11:52:32;;;;;;;3.70;2.33;;;14.70;69.40;;;;;;6213268;23;19997;-69
2023/01/23 11:55:16;;;;;;;2.23;2.03;;;14.80;69.40;;;;;;6213188;23;20001;-70
2023/01/23 11:58:03;;;;;;;2.80;2.40;;;14.70;69.40;;;;;;6214256;23;20341;-70
2023/01/23 12:00:42;;;;;;;3.42;2.28;;;14.70;69.40;;;;;;6214522;23;20483;-70
2023/01/23 12:03:52;;;;;;;2.85;1.90;;;14.80;69.40;;;;;;6188348;23;19996;-70
2023/01/23 12:06:42;;;;;;;2.22;2.00;;;14.70;69.40;;;;;;6093474;23;20054;-70
2023/01/23 12:09:12;;;;;;;3.70;2.15;;;14.70;69.40;;;;;;6069304;23;20082;-69
2023/01/23 12:11:49;;;;;;;2.28;2.08;;;14.80;69.50;;;;;;6069703;23;20021;-69
2023/01/23 12:14:16;;;;;;;2.30;2.10;;;14.70;69.40;;;;;;6093549;23;20006;-69
2023/01/23 12:16:49;;;;;;;1.80;1.70;;;14.70;69.40;;;;;;6069216;23;20089;-69
2023/01/23 12:19:44;;;;;;;2.15;1.95;;;14.70;69.40;;;;;;6068946;23;20030;-69
2023/01/23 12:22:31;;;;;;;3.50;2.17;;;14.70;69.40;;;;;;6092889;23;20007;-69
2023/01/23 12:25:15;;;;;;;2.20;2.00;;;14.70;69.40;;;;;;6093202;23;20019;-69
2023/01/23 12:27:45;;;;;;;2.88;2.45;;;14.70;69.40;;;;;;6069135;23;20369;-69
2023/01/23 12:30:31;;;;;;;2.58;2.10;;;14.70;69.40;;;;;;6069512;23;20332;-69
2023/01/23 12:33:15;;;;;;;2.17;1.98;;;14.70;69.40;;;;;;6093045;23;20010;-69
2023/01/23 12:35:45;;;;;;;1.83;1.73;;;14.70;69.40;;;;;;6093425;23;20014;-69
2023/01/23 12:38:24;;;;;;;2.28;1.92;;;14.70;69.40;;;;;;6069268;23;20011;-69
2023/01/23 12:40:51;;;;;;;2.50;2.05;;;14.70;69.40;;;;;;6093470;23;20081;-69
2023/01/23 12:43:51;;;;;;;1.63;1.52;;;14.80;69.50;;;;;;6195716;23;20379;-69
2023/01/23 12:46:25;;;;;;;1.88;1.77;;;14.70;69.40;;;;;;6190853;23;20066;-69
2023/01/23 12:48:57;;;;;;;2.90;1.98;;;14.70;69.40;;;;;;6188549;23;20496;-69
2023/01/23 12:51:25;;;;;;;2.58;1.80;;;14.70;69.40;;;;;;6212941;23;20001;-69
2023/01/23 12:53:53;;;;;;;2.13;1.80;;;14.70;69.40;;;;;;6188158;23;20011;-70
2023/01/23 12:56:22;;;;;;;1.88;1.65;;;14.70;69.40;;;;;;6216031;23;20004;-69
2023/01/23 12:59:20;;;;;;;1.80;1.70;;;14.70;69.40;;;;;;6216255;23;20005;-69
2023/01/23 13:02:10;;;;;;;2.50;1.70;;;14.70;69.40;;;;;;6214401;23;20247;-69